Time;durP1;ratioP1;P1;durP2;ratioP2;P2;SDS_P1;SDS_P2;PMS_P1;PMS_P2;Temp;Humidity;BMP_temperature;BMP_pressure;BME280_temperature;BME280_humidity;BME280_pressure;Samples;Min_cycle;Max_cycle;Signal;HPM_P1;HPM_P2
2021/12/06 00:02:23;;;;;;;;;;;;;;;18.21;52.25;101064.00;5096672;28;20363;-64
2021/12/06 00:04:48;;;;;;;;;;;;;;;18.18;52.27;101066.88;5096227;28;19915;-64
2021/12/06 00:07:16;;;;;;;;;;;;;;;18.15;52.24;101070.63;5095608;28;19920;-64
2021/12/06 00:09:41;;;;;;;;;;;;;;;18.12;52.03;101069.06;5096091;28;19919;-64
2021/12/06 00:12:10;;;;;;;;;;;;;;;18.10;52.20;101076.25;5096271;28;19912;-66
2021/12/06 00:14:37;;;;;;;;;;;;;;;18.08;52.10;101075.50;5095533;28;20378;-64
2021/12/06 00:17:08;;;;;;;;;;;;;;;18.07;52.36;101075.63;5095832;28;19916;-64
2021/12/06 00:19:34;;;;;;;;;;;;;;;18.04;52.46;101083.78;5095323;28;19920;-64
2021/12/06 00:22:01;;;;;;;;;;;;;;;18.00;52.00;101075.25;5095476;28;19923;-64
2021/12/06 00:24:27;;;;;;;;;;;;;;;17.99;52.26;101084.16;5095877;28;19918;-65
2021/12/06 00:26:52;;;;;;;;;;;;;;;17.98;52.14;101084.28;5094651;28;20006;-63
2021/12/06 00:29:18;;;;;;;;;;;;;;;17.95;52.35;101086.16;5095688;28;19922;-64
2021/12/06 00:31:43;;;;;;;;;;;;;;;17.94;52.18;101094.19;5095543;28;19977;-64
2021/12/06 00:34:13;;;;;;;;;;;;;;;17.92;52.22;101091.69;5094888;28;20007;-63
2021/12/06 00:36:40;;;;;;;;;;;;;;;17.89;52.11;101094.53;5095544;28;20308;-64
2021/12/06 00:39:07;;;;;;;;;;;;;;;17.88;52.14;101099.94;5095379;28;20364;-64
2021/12/06 00:41:32;;;;;;;;;;;;;;;17.86;52.47;101102.66;5094647;28;19912;-63
2021/12/06 00:43:59;;;;;;;;;;;;;;;17.85;52.43;101105.41;5095258;28;19980;-65
2021/12/06 00:46:25;;;;;;;;;;;;;;;17.83;52.33;101113.47;5094491;28;20372;-64
2021/12/06 00:48:50;;;;;;;;;;;;;;;17.81;52.26;101123.25;5094458;28;19966;-64
2021/12/06 00:51:15;;;;;;;;;;;;;;;17.80;52.49;101129.50;5095398;28;20040;-64
2021/12/06 00:53:41;;;;;;;;;;;;;;;17.79;52.36;101127.00;5094925;28;20007;-64
2021/12/06 00:56:06;;;;;;;;;;;;;;;17.76;52.25;101128.88;5094472;28;19919;-64
2021/12/06 00:58:31;;;;;;;5.00;2.70;;;;;;;17.75;52.54;101134.25;5094738;28;25100;-64
2021/12/06 01:00:57;;;;;;;;;;;;;;;17.73;52.59;101137.00;5094720;28;19987;-64
2021/12/06 01:03:28;;;;;;;;;;;;;;;17.72;52.50;101142.41;5094169;28;19913;-64
2021/12/06 01:05:53;;;;;;;;;;;;;;;17.71;52.38;101146.84;5094715;28;20006;-65
2021/12/06 01:08:20;;;;;;;;;;;;;;;17.68;52.46;101149.69;5095050;28;19923;-64
2021/12/06 01:10:46;;;;;;;;;;;;;;;17.67;52.32;101153.28;5093811;28;20244;-64
2021/12/06 01:13:11;;;;;;;;;;;;;;;17.65;52.72;101152.56;5095142;28;20007;-64
2021/12/06 01:15:37;;;;;;;;;;;;;;;17.64;52.34;101152.69;5094367;28;19920;-64
2021/12/06 01:18:03;;;;;;;;;;;;;;;17.63;52.67;101148.38;5094293;28;19916;-64
2021/12/06 01:20:31;;;;;;;;;;;;;;;17.61;52.46;101151.13;5094772;28;19927;-63
2021/12/06 01:23:03;;;;;;;;;;;;;;;17.60;52.34;101159.97;5093847;28;19915;-64
2021/12/06 01:33:39;;;;;;;;;;;;;;;17.54;52.67;101163.06;5096882;28;20021;-64
2021/12/06 01:39:11;;;;;;;;;;;;;;;17.52;52.43;101163.19;5097217;28;20000;-65
2021/12/06 01:41:38;;;;;;;;;;;;;;;17.49;52.42;101165.19;5094546;28;19947;-65
2021/12/06 01:44:05;;;;;;;;;;;;;;;17.48;52.80;101168.78;5093211;28;19965;-64
2021/12/06 01:46:32;;;;;;;;;;;;;;;17.48;52.57;101179.31;5094575;28;19919;-66
2021/12/06 01:48:58;;;;;;;;;;;;;;;17.45;52.72;101176.91;5093971;28;19919;-65
2021/12/06 01:51:23;;;;;;;;;;;;;;;17.45;52.59;101184.81;5093721;28;19916;-64
2021/12/06 01:53:48;;;;;;;;;;;;;;;17.44;52.63;101185.78;5093923;28;19923;-65
2021/12/06 01:56:14;;;;;;;;;;;;;;;17.41;52.59;101181.56;5094151;28;19912;-65
2021/12/06 01:58:41;;;;;;;;;;;;;;;17.38;53.09;101179.97;5092034;28;20413;-65
2021/12/06 02:01:06;;;;;;;;;;;;;;;17.40;53.43;101191.28;5094126;28;20282;-65
2021/12/06 02:03:35;;;;;;;;;;;;;;;17.40;53.82;101183.38;5093940;28;19916;-64
2021/12/06 02:06:00;;;;;;;;;;;;;;;17.44;53.72;101194.53;5092966;28;19912;-64
2021/12/06 02:08:25;;;;;;;;;;;;;;;17.46;53.46;101192.59;5094007;28;20247;-64
2021/12/06 02:10:58;;;;;;;;;;;;;;;17.48;53.57;101189.88;5093602;28;20007;-64
2021/12/06 02:13:23;;;;;;;;;;;;;;;17.49;53.62;101194.19;5092991;28;19912;-64
2021/12/06 02:15:54;;;;;;;;;;;;;;;17.50;53.57;101185.31;5093400;28;19938;-65
2021/12/06 02:21:25;;;;;;;;;;;;;;;17.53;53.46;101199.13;5094708;28;19958;-64
2021/12/06 02:23:50;;;;;;;;;;;;;;;17.54;53.34;101199.97;5093654;28;19981;-64
2021/12/06 02:26:16;;;;;;;;;;;;;;;17.54;53.01;101199.97;5093174;28;20521;-64
2021/12/06 02:28:42;;;;;;;;;;;;;;;17.54;53.29;101203.44;5093488;28;19912;-65
2021/12/06 02:31:08;;;;;;;;;;;;;;;17.52;53.18;101205.34;5093404;28;19912;-64
2021/12/06 02:33:33;;;;;;;;;;;;;;;17.53;53.17;101217.56;5092705;28;19918;-65
2021/12/06 02:35:58;;;;;;;;;;;;;;;17.54;53.03;101211.34;5092993;28;20286;-64
2021/12/06 02:38:24;;;;;;;;;;;;;;;17.53;52.69;101211.44;5093264;28;20347;-65
2021/12/06 02:40:49;;;;;;;;;;;;;;;17.53;52.73;101216.72;5091981;28;19985;-64
2021/12/06 02:43:14;;;;;;;;;;;;;;;17.52;52.82;101225.59;5093267;28;19919;-65
2021/12/06 02:45:44;;;;;;;;;;;;;;;17.51;52.86;101219.47;5092916;28;19919;-64
2021/12/06 02:48:10;;;;;;;;;;;;;;;17.51;52.51;101227.38;5092376;28;20003;-65
2021/12/06 02:50:37;;;;;;;;;;;;;;;17.50;52.43;101233.59;5093133;28;19912;-65
2021/12/06 02:53:04;;;;;;;;;;;;;;;17.49;52.65;101231.09;5092784;28;19962;-65
2021/12/06 02:55:35;;;;;;;;;;;;;;;17.50;53.21;101232.75;5092411;28;19916;-64
2021/12/06 02:58:12;;;;;;;;;;;;;;;17.51;53.26;101240.53;5092932;28;19916;-65
2021/12/06 03:00:38;;;;;;;;;;;;;;;17.52;53.25;101236.97;5093085;28;19908;-65
2021/12/06 03:03:03;;;;;;;;;;;;;;;17.52;53.46;101239.59;5091829;28;19912;-65
2021/12/06 03:05:28;;;;;;;;;;;;;;;17.54;53.11;101235.03;5092735;28;19920;-64
2021/12/06 03:07:58;;;;;;;;;;;;;;;17.54;52.95;101236.84;5092754;28;19915;-66
2021/12/06 03:10:23;;;;;;;;;;;;;;;17.56;53.03;101242.84;5091560;28;19912;-64
2021/12/06 03:12:48;;;;;;;;;;;;;;;17.55;53.22;101242.00;5092459;28;19912;-64
2021/12/06 03:15:16;;;;;;;;;;;;;;;17.55;53.05;101243.81;5091747;28;19924;-64
2021/12/06 03:17:41;;;;;;;;;;;;;;;17.55;53.15;101241.19;5092311;28;19916;-64
2021/12/06 03:20:09;;;;;;;;;;;;;;;17.54;52.83;101244.75;5092718;28;19923;-64
2021/12/06 03:22:34;;;;;;;;;;;;;;;17.53;53.16;101243.06;5092134;28;20329;-64
2021/12/06 03:24:59;;;;;;;;;;;;;;;17.52;52.93;101242.22;5092375;28;20386;-64
2021/12/06 03:27:25;;;;;;;;;;;;;;;17.52;52.99;101242.22;5092816;28;19991;-65
2021/12/06 03:29:50;;;;;;;;;;;;;;;17.51;53.00;101242.34;5091728;28;20338;-64
2021/12/06 03:32:15;;;;;;;;;;;;;;;17.50;52.72;101238.88;5092614;28;19912;-65
2021/12/06 03:34:41;;;;;;;;;;;;;;;17.50;53.05;101241.50;5092272;28;20267;-65
2021/12/06 03:37:06;;;;;;;;;;;;;;;17.49;52.86;101239.81;5092001;28;19919;-64
2021/12/06 03:39:35;;;;;;;;;;;;;;;17.49;52.76;101244.25;5092693;28;19923;-64
2021/12/06 03:42:03;;;;;;;;;;;;;;;17.47;52.86;101243.53;5092291;28;20282;-65
2021/12/06 03:44:28;;;;;;;;;;;;;;;17.47;53.07;101249.63;5091796;28;19912;-65
2021/12/06 03:46:57;;;;;;;;;;;;;;;17.48;53.24;101258.38;5092138;28;19972;-63
2021/12/06 03:49:22;;;;;;;;;;;;;;;17.49;53.38;101257.44;5092653;28;19959;-65
2021/12/06 03:51:51;;;;;;;;;;;;;;;17.50;53.41;101251.19;5091495;28;19959;-64
2021/12/06 03:54:23;;;;;;;;;;;;;;;17.50;52.98;101252.06;5092565;28;19916;-64
2021/12/06 03:56:48;;;;;;;;;;;;;;;17.51;53.17;101244.97;5092075;28;20287;-63
2021/12/06 03:59:13;;;;;;;;;;;;;;;17.52;53.07;101247.50;5091567;28;20011;-65
2021/12/06 04:01:39;;;;;;;;;;;;;;;17.52;53.19;101246.66;5092236;28;19912;-64
2021/12/06 04:04:05;;;;;;;;;;;;;;;17.52;52.91;101249.31;5092504;28;20364;-64
2021/12/06 04:06:31;;;;;;;;;;;;;;;17.54;53.29;101255.28;5091665;28;19939;-64
2021/12/06 04:08:56;;;;;;;;;;;;;;;17.52;53.28;101263.31;5092310;28;19934;-64
2021/12/06 04:11:22;;;;;;;;;;;;;;;17.53;53.47;101265.00;5092221;28;19965;-64
2021/12/06 04:13:47;;;;;;;;;;;;;;;17.55;53.37;101270.16;5090918;28;19912;-65
2021/12/06 04:16:13;;;;;;;;;;;;;;;17.54;53.52;101274.56;5092153;28;20003;-64
2021/12/06 04:18:40;;;;;;;;;;;;;;;17.56;53.54;101266.56;5091372;28;19919;-64
2021/12/06 04:21:06;;;;;;;;;;;;;;;17.58;53.14;101259.41;5092425;28;20367;-65
2021/12/06 04:23:32;;;;;;;;;;;;;;;17.57;53.33;101260.34;5095934;28;19922;-64
2021/12/06 04:25:57;;;;;;;;;;;;;;;17.58;53.02;101254.97;5094843;28;19958;-63
2021/12/06 04:28:22;;;;;;;;;;;;;;;17.58;53.34;101256.78;5095787;28;19964;-64
2021/12/06 04:30:48;;;;;;;;;;;;;;;17.59;53.41;101263.72;5094991;28;19912;-64
2021/12/06 04:33:14;;;;;;;;;;;;;;;17.59;53.18;101266.34;5094655;28;20005;-64
2021/12/06 04:35:43;;;;;;;;;;;;;;;17.57;52.98;101260.34;5095123;28;19918;-63
2021/12/06 04:38:08;;;;;;;;;;;;;;;17.57;52.85;101262.97;5095418;28;19916;-64
2021/12/06 04:40:34;;;;;;;;;;;;;;;17.56;52.97;101272.69;5094144;28;20317;-64
2021/12/06 04:42:59;;;;;;;;;;;;;;;17.57;53.33;101270.88;5095163;28;19916;-65
2021/12/06 04:45:25;;;;;;;;;;;;;;;17.56;53.49;101267.44;5095348;28;19912;-63
2021/12/06 04:47:53;;;;;;;;;;;;;;;17.57;53.38;101276.16;5094655;28;19916;-63
2021/12/06 04:50:23;;;;;;;;;;;;;;;17.58;52.96;101277.84;5095321;28;19916;-64
2021/12/06 04:52:51;;;;;;;;;;;;;;;17.58;53.16;101272.59;5094834;28;19916;-63
2021/12/06 04:55:26;;;;;;;;;;;;;;;17.58;53.15;101288.41;5094229;28;20000;-64
2021/12/06 04:57:51;;;;;;;;;;;;;;;17.57;52.60;101282.25;5094558;28;19955;-64
2021/12/06 05:00:23;;;;;;;;;;;;;;;17.57;52.62;101284.91;5095381;28;19920;-64
2021/12/06 05:02:48;;;;;;;;;;;;;;;17.57;52.80;101287.53;5094191;28;19911;-65
2021/12/06 05:05:16;;;;;;;;;;;;;;;17.56;52.75;101291.16;5095056;28;19916;-64
2021/12/06 05:07:44;;;;;;;;;;;;;;;17.56;52.58;101287.66;5094733;28;19928;-64
2021/12/06 05:10:11;;;;;;;;;;;;;;;17.53;52.59;101288.72;5094441;28;19947;-64
2021/12/06 05:12:36;;;;;;;;;;;;;;;17.54;52.59;101290.38;5094553;28;19956;-65
2021/12/06 05:15:02;;;;;;;;;;;;;;;17.53;52.67;101287.88;5093454;28;19920;-64
2021/12/06 05:17:29;;;;;;;;;;;;;;;17.53;52.84;101294.00;5094747;28;19916;-64
2021/12/06 05:19:54;;;;;;;;;;;;;;;17.53;52.68;101298.41;5094449;28;19919;-64
2021/12/06 05:22:20;;;;;;;;;;;;;;;17.52;52.86;101294.94;5094130;28;19916;-64
2021/12/06 05:24:48;;;;;;;;;;;;;;;17.53;52.83;101308.94;5094376;28;19948;-66
2021/12/06 05:27:13;;;;;;;;;;;;;;;17.53;52.35;101316.84;5094480;28;19912;-64
2021/12/06 05:29:43;;;;;;;;;;;;;;;17.53;52.42;101320.34;5093840;28;19919;-64
2021/12/06 05:32:11;;;;;;;;;;;;;;;17.54;52.48;101315.91;5094423;28;20369;-64
2021/12/06 05:34:39;;;;;;;;;;;;;;;17.53;52.46;101311.59;5094296;28;19915;-64
2021/12/06 05:37:05;;;;;;;;;;;;;;;17.52;52.18;101309.91;5093792;28;19969;-64
2021/12/06 05:39:31;;;;;;;;;;;;;;;17.51;52.06;101306.41;5094312;28;19942;-65
2021/12/06 05:42:01;;;;;;;;;;;;;;;17.50;52.25;101307.38;5094145;28;20253;-65
2021/12/06 05:44:27;;;;;;;;;;;;;;;17.50;52.22;101302.13;5093519;28;19912;-64
2021/12/06 05:46:52;;;;;;;;;;;;;;;17.51;52.71;101300.31;5094062;28;19919;-64
2021/12/06 05:49:17;;;;;;;;;;;;;;;17.51;52.79;101300.31;5094169;28;20352;-65
2021/12/06 05:51:43;;;;;;;;;;;;;;;17.51;52.77;101309.06;5093148;28;19965;-64
2021/12/06 05:54:08;;;;;;;;;;;;;;;17.53;52.73;101299.28;5094066;28;19916;-65
2021/12/06 05:56:33;;;;;;;;;;;;;;;17.52;52.41;101307.28;5094111;28;20255;-65
2021/12/06 05:58:59;;;;;;;;;;;;;;;17.52;52.43;101302.84;5093030;28;19988;-65
2021/12/06 06:01:29;;;;;;;;;;;;;;;17.55;52.72;101320.25;5093903;28;19958;-65
2021/12/06 06:03:54;;;;;;;;;;;;;;;17.54;53.06;101316.75;5093547;28;19912;-65
2021/12/06 06:06:19;;;;;;;;;;;;;;;17.56;53.11;101324.53;5093067;28;19919;-64
2021/12/06 06:08:45;;;;;;;;;;;;;;;17.57;53.42;101321.78;5093423;28;20367;-65
2021/12/06 06:11:13;;;;;;;;;;;;;;;17.59;53.44;101333.09;5093150;28;19916;-64
2021/12/06 06:13:38;;;;;;;;;;;;;;;17.59;53.07;101333.09;5093889;28;19934;-64
2021/12/06 06:16:03;;;;;;;;;;;;;;;17.63;53.30;101346.06;5093269;28;20367;-64
2021/12/06 06:18:29;;;;;;;;;;;;;;;17.64;52.96;101343.31;5092751;28;19912;-64
2021/12/06 06:20:55;;;;;;;;;;;;;;;17.66;52.48;101345.84;5093397;28;19912;-65
2021/12/06 06:23:24;;;;;;;;;;;;;;;17.66;52.71;101348.47;5093477;28;20146;-64
2021/12/06 06:25:49;;;;;;;;;;;;;;;17.69;52.27;101353.50;5092282;28;20213;-64
2021/12/06 06:28:15;;;;;;;;;;;;;;;17.71;52.30;101360.34;5093523;28;19918;-64
2021/12/06 06:30:40;;;;;;;;;;;;;;;17.72;52.24;101354.16;5093157;28;19951;-64
2021/12/06 06:33:05;;;;;;;;;;;;;;;17.73;52.18;101355.81;5092535;28;19919;-64
2021/12/06 06:35:31;;;;;;;;;;;;;;;17.75;52.19;101346.03;5093319;28;20015;-64
2021/12/06 06:37:59;;;;;;;;;;;;;;;17.77;52.47;101351.19;5092659;28;20350;-65
2021/12/06 06:40:25;;;;;;;;;;;;;;;17.78;52.16;101350.22;5092661;28;20007;-64
2021/12/06 06:42:50;;;;;;;;;;;;;;;17.79;52.49;101351.91;5092346;28;19923;-64
2021/12/06 06:45:17;;;;;;;;;;;;;;;17.80;52.36;101343.06;5092760;28;20450;-64
2021/12/06 06:47:42;;;;;;;;;;;;;;;17.80;52.51;101340.41;5091136;28;19919;-64
2021/12/06 06:50:08;;;;;;;;;;;;;;;17.81;52.30;101346.53;5093249;28;19912;-64
2021/12/06 06:52:33;;;;;;;;;;;;;;;17.82;52.31;101348.22;5093112;28;19951;-64
2021/12/06 06:54:59;;;;;;;;;;;;;;;17.82;52.11;101349.06;5091872;28;20323;-64
2021/12/06 06:57:24;;;;;;;;;;;;;;;17.83;52.29;101344.63;5093234;28;19912;-64
2021/12/06 06:59:49;;;;;;;;;;;;;;;17.83;51.93;101353.38;5092751;28;20021;-64
2021/12/06 07:02:15;;;;;;;;;;;;;;;17.86;51.76;101349.66;5092407;28;19973;-64
2021/12/06 07:04:40;;;;;;;;;;;;;;;17.85;51.84;101351.47;5092749;28;19955;-64
2021/12/06 07:07:05;;;;;;;;;;;;;;;17.87;51.92;101351.34;5092921;28;19916;-65
2021/12/06 07:09:31;;;;;;;;;;;;;;;17.88;51.74;101347.78;5092503;28;19920;-64
2021/12/06 07:11:58;;;;;;;;;;;;;;;17.89;52.17;101352.13;5092755;28;19915;-64
2021/12/06 07:14:26;;;;;;;;;;;;;;;17.89;51.83;101352.94;5092093;28;19916;-63
2021/12/06 07:16:51;;;;;;;;;;;;;;;17.89;51.84;101360.03;5092607;28;19916;-64
2021/12/06 07:19:17;;;;;;;;;;;;;;;17.90;51.86;101359.91;5092880;28;19999;-64
2021/12/06 07:21:42;;;;;;;;;;;;;;;17.91;51.54;101372.16;5091753;28;20463;-64
2021/12/06 07:24:07;;;;;;;;;;;;;;;17.93;51.72;101358.88;5093135;28;20356;-64
2021/12/06 07:26:33;;;;;;;;;;;;;;;17.93;51.61;101366.78;5093060;28;20001;-64
2021/12/06 07:28:59;;;;;;;;;;;;;;;17.93;51.64;101378.16;5092169;28;20280;-64
2021/12/06 07:31:25;;;;;;;;;;;;;;;17.95;50.40;101383.31;5093120;28;19912;-64
2021/12/06 07:33:51;;;;;;;;;;;;;;;17.92;49.70;101381.72;5092638;28;20318;-64
2021/12/06 07:36:17;;;;;;;;;;;;;;;17.93;50.67;101390.50;5092135;28;19947;-65
2021/12/06 07:38:43;;;;;;;;;;;;;;;17.94;50.86;101386.91;5092261;28;20006;-65
2021/12/06 07:41:10;;;;;;;;;;;;;;;17.96;50.41;101390.28;5092949;28;20334;-65
2021/12/06 07:43:36;;;;;;;;;;;;;;;17.99;50.43;101389.22;5092170;28;19920;-66
2021/12/06 07:46:07;;;;;;;;;;;;;;;18.00;50.21;101386.47;5092414;28;20355;-65
2021/12/06 07:48:33;;;;;;;;;;;;;;;18.03;50.27;101377.50;5092398;28;19912;-64
2021/12/06 07:50:59;;;;;;;;;;;;;;;18.06;50.32;101369.38;5091690;28;20103;-64
2021/12/06 07:53:25;;;;;;;;;;;;;;;18.07;50.33;101369.25;5092732;28;19938;-65
2021/12/06 07:55:50;;;;;;;;;;;;;;;18.10;50.60;101368.16;5092199;28;20307;-64
2021/12/06 07:58:15;;;;;;;;;;;;;;;18.11;50.28;101361.94;5095452;28;19912;-64
2021/12/06 08:00:46;;;;;;;;;;;;;;;18.13;50.36;101358.25;5096103;28;19916;-63
2021/12/06 08:03:12;;;;;;;;;;;;;;;18.17;50.81;101358.03;5096230;28;19916;-63
2021/12/06 08:05:38;;;;;;;;;;;;;;;18.18;50.54;101357.06;5095478;28;19919;-64
2021/12/06 08:08:09;;;;;;;;;;;;;;;18.19;50.64;101354.31;5096086;28;19916;-62
2021/12/06 08:10:37;;;;;;;;;;;;;;;18.20;50.72;101355.13;5096148;28;19922;-61
2021/12/06 08:13:03;;;;;;;;;;;;;;;18.21;50.56;101355.03;5095515;28;20003;-60
2021/12/06 08:15:28;;;;;;;;;;;;;;;18.22;50.54;101356.72;5095583;28;19916;-62
2021/12/06 08:17:56;;;;;;;;;;;;;;;18.22;50.58;101345.34;5094971;28;19912;-61
2021/12/06 08:20:22;;;;;;;;;;;;;;;18.22;50.80;101354.09;5096283;28;19916;-61
2021/12/06 08:22:47;;;;;;;;;;;;;;;18.23;50.66;101355.78;5094892;28;20373;-60
2021/12/06 08:25:13;;;;;;;;;;;;;;;18.24;50.77;101356.63;5095307;28;20007;-61
2021/12/06 08:27:40;;;;;;;;;;;;;;;18.25;51.02;101355.66;5095718;28;20371;-62
2021/12/06 08:30:05;;;;;;;;;;;;;;;18.26;51.05;101359.97;5095124;28;19912;-63
2021/12/06 08:32:30;;;;;;;;;;;;;;;18.25;50.71;101353.03;5094976;28;20316;-65
2021/12/06 08:34:56;;;;;;;;;;;;;;;18.24;50.43;101362.72;5095537;28;19920;-62
2021/12/06 08:37:21;;;;;;;;;;;;;;;18.25;51.14;101364.41;5095869;28;20367;-62
2021/12/06 08:39:46;;;;;;;;;;;;;;;18.26;51.17;101371.38;5094488;28;20330;-61
2021/12/06 08:42:11;;;;;;;;;;;;;;;18.28;51.30;101377.38;5095762;28;19908;-62
2021/12/06 08:44:37;;;;;;;;;;;;;;;18.30;51.41;101390.47;5095476;28;19919;-64
2021/12/06 08:47:02;;;;;;;;;;;;;;;18.32;51.88;101391.19;5094584;28;20002;-63
2021/12/06 08:49:29;;;;;;;;;;;;;;;18.32;51.78;101396.47;5095194;28;19908;-64
2021/12/06 08:51:56;;;;;;;;;;;;;;;18.33;52.02;101389.41;5095343;28;19923;-64
2021/12/06 08:54:24;;;;;;;;;;;;;;;18.40;52.14;101391.47;5096497;28;19927;-66
2021/12/06 08:56:51;;;;;;;;;;;;;;;18.51;52.25;101395.13;5096150;28;20345;-65
2021/12/06 08:59:16;;;;;;;;;;;;;;;18.62;51.81;101395.16;5095868;28;25133;-61
2021/12/06 09:01:42;;;;;;;;;;;;;;;18.71;51.64;101401.53;5094212;28;19917;-62
2021/12/06 09:04:11;;;;;;;;;;;;;;;18.77;51.78;101401.06;5095786;28;20007;-63
2021/12/06 09:06:41;;;;;;;;;;;;;;;18.85;51.27;101407.50;5096416;28;19963;-64
2021/12/06 09:09:08;;;;;;;;;;;;;;;18.93;51.08;101403.44;5094969;28;19916;-66
2021/12/06 09:11:35;;;;;;;;;;;;;;;18.98;51.43;101406.59;5095396;28;19942;-64
2021/12/06 09:14:00;;;;;;;;;;;;;;;19.05;51.15;101409.59;5093995;28;19963;-68
2021/12/06 09:16:25;;;;;;;;;;;;;;;19.10;51.02;101410.09;5095868;28;19970;-67
2021/12/06 09:18:50;;;;;;;;;;;;;;;19.15;51.13;101415.84;5095933;28;19920;-65
2021/12/06 09:21:17;;;;;;;;;;;;;;;19.20;50.47;101411.03;5095194;28;19931;-63
2021/12/06 09:23:44;;;;;;;;;;;;;;;19.25;50.56;101413.34;5095190;28;19916;-63
2021/12/06 09:26:09;;;;;;;;;;;;;;;19.24;50.09;101409.03;5095027;28;19920;-64
2021/12/06 09:28:35;;;;;;;;;;;;;;;19.24;49.79;101404.56;5095151;28;20378;-66
2021/12/06 09:31:03;;;;;;;;;;;;;;;19.26;49.86;101420.31;5095319;28;19920;-67
2021/12/06 09:33:30;;;;;;;;;;;;;;;19.26;49.85;101415.03;5095111;28;20004;-63
2021/12/06 09:35:58;;;;;;;;;;;;;;;19.25;49.86;101411.56;5094574;28;19927;-63
2021/12/06 09:38:27;;;;;;;;;;;;;;;19.24;48.55;101409.88;5095796;28;19969;-64
2021/12/06 09:40:56;;;;;;;;;;;;;;;19.23;49.36;101416.09;5095639;28;19920;-63
2021/12/06 09:43:22;;;;;;;;;;;;;;;19.23;47.95;101408.16;5095074;28;19920;-66
2021/12/06 09:45:48;;;;;;;;;;;;;;;19.21;49.15;101410.09;5095737;28;19950;-63
2021/12/06 09:48:16;;;;;;;;;;;;;;;19.21;49.55;101405.66;5095825;28;19916;-63
2021/12/06 09:50:46;;;;;;;;;;;;;;;19.18;49.52;101407.69;5094649;28;19981;-67
2021/12/06 09:53:15;;;;;;;;;;;;;;;19.16;49.34;101410.44;5100260;28;19927;-66
2021/12/06 09:55:42;;;;;;;;;;;;;;;19.16;49.57;101414.91;5103437;28;19920;-67
2021/12/06 09:58:08;;;;;;;;;;;;;;;19.14;49.72;101417.66;5102440;28;20249;-66
2021/12/06 10:00:36;;;;;;;;;;;;;;;19.15;49.85;101413.22;5106010;28;20000;-65
2021/12/06 10:03:04;;;;;;;;;;;;;;;19.12;49.67;101414.31;5106240;28;19923;-66
2021/12/06 10:05:29;;;;;;;;;;;;;;;19.10;49.37;101408.28;5105153;28;19943;-62
2021/12/06 10:07:55;;;;;;;;;;;;;;;19.11;49.84;101403.84;5104599;28;19919;-62
2021/12/06 10:10:21;;;;;;;;;;;;;;;19.14;49.82;101398.34;5097971;28;19928;-62
2021/12/06 10:12:51;;;;;;;;;;;;;;;19.13;49.54;101391.34;5099384;28;20006;-64
2021/12/06 10:15:17;;;;;;;;;;;;;;;19.07;49.46;101392.66;5096485;28;20368;-63
2021/12/06 10:17:42;;;;;;;;;;;;;;;18.99;49.61;101387.13;5098236;28;19916;-63
2021/12/06 10:20:08;;;;;;;;;;;;;;;18.91;49.95;101384.22;5107983;28;19920;-63
2021/12/06 10:22:34;;;;;;;;;;;;;;;18.84;50.18;101379.41;5102689;28;20000;-63
2021/12/06 10:24:59;;;;;;;;;;;;;;;18.77;50.36;101378.19;5094110;28;20260;-62
2021/12/06 10:27:26;;;;;;;;;;;;;;;18.72;50.59;101371.53;5095344;28;20304;-64
2021/12/06 10:30:01;;;;;;;;;;;;;;;18.66;50.39;101363.13;5096131;28;19924;-62
2021/12/06 10:32:31;;;;;;;;;;;;;;;18.61;50.66;101362.66;5095240;28;19916;-63
2021/12/06 10:34:59;;;;;;;;;;;;;;;18.58;50.67;101372.56;5095372;28;19916;-64
2021/12/06 10:37:34;;;;;;;;;;;;;;;18.56;50.50;101374.50;5094716;28;19920;-64
2021/12/06 10:40:00;;;;;;;;;;;;;;;18.53;50.14;101377.34;5094182;28;19924;-63
2021/12/06 10:42:33;;;;;;;;;;;;;;;18.51;50.19;101371.38;5094040;28;19919;-66
2021/12/06 10:45:28;;;;;;;;;;;;;;;18.46;49.23;101363.78;5093736;28;19927;-64
2021/12/06 10:48:08;;;;;;;;;;;;;;;18.44;49.98;101361.25;5088156;28;19954;-64
2021/12/06 10:50:34;;;;;;;;;;;;;;;18.42;50.11;101349.97;5093775;28;20371;-64
2021/12/06 10:53:01;;;;;;;;;;;;;;;18.41;50.58;101342.19;5092981;28;19943;-66
2021/12/06 10:55:28;;;;;;;;;;;;;;;18.39;50.45;101339.66;5094174;28;19920;-63
2021/12/06 10:57:58;;;;;;;;;;;;;;;18.42;50.66;101331.50;5095115;28;19943;-61
2021/12/06 11:00:39;;;;;;;;;;;;;;;18.52;50.68;101312.31;5095231;28;19939;-62
2021/12/06 11:03:16;;;;;;;;;;;;;;;18.64;50.21;101306.97;5094200;28;19947;-66
2021/12/06 11:05:43;;;;;;;;;;;;;;;18.78;50.46;101313.00;5093448;28;19920;-66
2021/12/06 11:08:13;;;;;;;;;;;;;;;18.87;49.94;101311.47;5092364;28;20005;-64
2021/12/06 11:10:39;;;;;;;;;;;;;;;18.96;49.45;101319.53;5092994;28;19927;-66
2021/12/06 11:13:43;;;;;;;;;;;;;;;19.02;49.35;101321.69;5093422;28;19916;-65
2021/12/06 11:16:11;;;;;;;;;;;;;;;19.06;49.09;101311.75;5030457;28;20009;-64
2021/12/06 11:18:39;;;;;;;;;;;;;;;19.05;49.02;101306.56;5030904;28;20020;-65
2021/12/06 11:21:12;;;;;;;;;;;;;;;18.98;48.94;101295.66;5061379;28;19917;-64
2021/12/06 11:23:55;;;;;;;;;;;;;;;18.97;49.40;101283.41;5093392;28;19916;-65
2021/12/06 11:26:20;;;;;;;;;;;;;;;18.96;49.18;101271.13;5093569;28;19928;-65
2021/12/06 11:28:45;;;;;;;;;;;;;;;18.95;49.30;101272.13;5092185;28;20338;-65
2021/12/06 11:31:14;;;;;;;;;;;;;;;18.95;49.31;101278.22;5095225;28;20417;-63
2021/12/06 11:33:39;;;;;;;;;;;;;;;18.96;49.09;101271.13;5096637;28;20362;-66
2021/12/06 11:36:17;;;;;;;;;;;;;;;18.91;48.54;101278.59;5096469;28;20002;-63
2021/12/06 11:38:46;;;;;;;;;;;;;;;18.84;49.04;101273.78;5096710;28;20321;-65
2021/12/06 11:41:11;;;;;;;;;;;;;;;18.79;49.14;101267.16;5097041;28;19920;-66
2021/12/06 11:43:37;;;;;;;;;;;;;;;18.73;49.63;101263.19;5096298;28;19916;-65
2021/12/06 11:46:04;;;;;;;;;;;;;;;18.68;49.63;101257.41;5096672;28;19923;-62
2021/12/06 11:48:32;;;;;;;;;;;;;;;18.64;49.77;101259.47;5096652;28;19958;-63
2021/12/06 11:51:04;;;;;;;;;;;;;;;18.62;50.22;101256.06;5095635;28;19939;-62
2021/12/06 11:53:34;;;;;;;;;;;;;;;18.60;50.25;101257.16;5096716;28;19923;-64
2021/12/06 11:56:08;;;;;;;;;;;;;;;18.59;50.39;101252.84;5095622;28;19920;-64
2021/12/06 11:58:35;;;;;;;;;;;;;;;18.55;50.49;101252.25;5096582;28;19916;-64
2021/12/06 12:01:05;;;;;;;;;;;;;;;18.57;50.36;101254.75;5096391;28;19915;-63
2021/12/06 12:03:32;;;;;;;;;;;;;;;18.54;50.33;101250.56;5095909;28;20015;-64
2021/12/06 12:06:00;;;;;;;;;;;;;;;18.53;50.39;101240.09;5096425;28;20006;-65
2021/12/06 12:08:30;;;;;;;;;;;;;;;18.51;50.19;101240.22;5096993;28;19923;-68
2021/12/06 12:10:55;;;;;;;;;;;;;;;18.49;50.61;101235.06;5095659;28;20358;-65
2021/12/06 12:13:25;;;;;;;;;;;;;;;18.46;50.05;101219.47;5096320;28;19947;-66
2021/12/06 12:15:53;;;;;;;;;;;;;;;18.45;50.47;101224.84;5095650;28;19919;-65
2021/12/06 12:18:18;;;;;;;;;;;;;;;18.44;50.61;101229.31;5095590;28;19928;-65
2021/12/06 12:20:44;;;;;;;;;;;;;;;18.43;50.51;101224.97;5096025;28;19920;-67
2021/12/06 12:23:10;;;;;;;;;;;;;;;18.39;49.04;101223.53;5096260;28;19916;-66
2021/12/06 12:25:45;;;;;;;;;;;;;;;18.37;50.34;101212.25;5095427;28;19922;-66
2021/12/06 12:28:19;;;;;;;;;;;;;;;18.35;50.30;101200.97;5096378;28;20262;-66
2021/12/06 12:30:45;;;;;;;;;;;;;;;18.31;49.54;101192.47;5095665;28;19921;-65
2021/12/06 12:33:12;;;;;;;;;;;;;;;18.30;50.15;101188.13;5095210;28;19916;-64
2021/12/06 12:35:41;;;;;;;;;;;;;;;18.29;50.11;101185.63;5095932;28;19962;-67
2021/12/06 12:38:08;;;;;;;;;;;;;;;18.29;50.51;101185.63;5095175;28;19920;-67
2021/12/06 12:40:40;;;;;;;;;;;;;;;18.30;50.53;101192.56;5095648;28;19916;-67
2021/12/06 12:43:10;;;;;;;;;;;;;;;18.30;50.33;101179.38;5094790;28;19916;-67
2021/12/06 12:45:38;;;;;;;;;;;;;;;18.31;50.22;101178.44;5094736;28;19920;-65
2021/12/06 12:48:04;;;;;;;;;;;;;;;18.31;51.26;101175.81;5095565;28;19916;-67
2021/12/06 12:50:32;;;;;;;;;;;;;;;18.31;50.68;101170.53;5095504;28;19927;-66